Time;durP1;ratioP1;P1;durP2;ratioP2;P2;SDS_P1;SDS_P2;PMS_P1;PMS_P2;Temp;Humidity;BMP_temperature;BMP_pressure;BME280_temperature;BME280_humidity;BME280_pressure;Samples;Min_cycle;Max_cycle;Signal;HPM_P1;HPM_P2
2021/05/28 00:00:42;;;;;;;4.47;4.05;;;;;;;;;;5038309;28;20202;-82
2021/05/28 00:03:09;;;;;;;4.60;3.50;;;;;;;;;;5039246;28;20217;-82
2021/05/28 00:05:36;;;;;;;6.90;3.72;;;;;;;;;;5039387;28;20210;-82
2021/05/28 00:08:05;;;;;;;4.82;4.28;;;;;;;;;;5039590;28;20556;-82
2021/05/28 00:10:32;;;;;;;4.30;3.60;;;;;;;;;;5039197;28;20213;-82
2021/05/28 00:12:59;;;;;;;6.03;4.95;;;;;;;;;;5039097;28;20198;-83
2021/05/28 00:15:26;;;;;;;5.03;3.97;;;;;;;;;;5037849;28;20649;-82
2021/05/28 00:17:52;;;;;;;6.35;4.18;;;;;;;;;;5038286;28;20217;-81
2021/05/28 00:20:20;;;;;;;5.10;3.88;;;;;;;;;;5038973;28;20185;-82
2021/05/28 00:22:47;;;;;;;4.40;3.90;;;;;;;;;;5038588;28;20210;-84
2021/05/28 00:25:15;;;;;;;3.00;2.75;;;;;;;;;;5038237;28;20700;-83
2021/05/28 00:27:43;;;;;;;4.53;4.03;;;;;;;;;;5038300;28;20206;-82
2021/05/28 00:30:12;;;;;;;4.45;4.05;;;;;;;;;;5038182;28;20229;-84
2021/05/28 00:32:39;;;;;;;5.47;4.18;;;;;;;;;;5038082;28;20190;-81
2021/05/28 00:35:08;;;;;;;4.90;3.88;;;;;;;;;;5037618;28;20222;-82
2021/05/28 00:37:34;;;;;;;4.38;3.97;;;;;;;;;;5038176;28;20726;-82
2021/05/28 00:40:02;;;;;;;5.25;4.57;;;;;;;;;;5037375;28;20203;-82
2021/05/28 00:42:29;;;;;;;4.82;4.32;;;;;;;;;;5037838;28;20302;-82
2021/05/28 00:44:56;;;;;;;5.95;3.95;;;;;;;;;;5037528;28;20660;-84
2021/05/28 00:47:23;;;;;;;4.80;4.30;;;;;;;;;;5036646;28;20205;-82
2021/05/28 00:49:50;;;;;;;4.80;3.92;;;;;;;;;;5037686;28;20213;-82
2021/05/28 00:52:17;;;;;;;7.03;4.35;;;;;;;;;;5037895;28;20202;-82
2021/05/28 00:54:44;;;;;;;5.97;4.00;;;;;;;;;;5037438;28;20206;-82
2021/05/28 00:57:11;;;;;;;4.82;3.88;;;;;;;;;;5037693;28;20201;-82
2021/05/28 00:59:39;;;;;;;5.18;4.43;;;;;;;;;;5037588;28;20552;-82
2021/05/28 01:02:06;;;;;;;5.68;4.65;;;;;;;;;;5037562;28;20242;-83
2021/05/28 01:04:34;;;;;;;4.10;3.80;;;;;;;;;;5037875;28;20206;-83
2021/05/28 01:07:01;;;;;;;5.13;4.40;;;;;;;;;;5037479;28;20269;-82
2021/05/28 01:09:28;;;;;;;4.13;3.83;;;;;;;;;;5037766;28;20213;-82
2021/05/28 01:11:55;;;;;;;6.20;4.85;;;;;;;;;;5037408;28;20256;-83
2021/05/28 01:14:22;;;;;;;4.90;4.50;;;;;;;;;;5037625;28;20214;-83
2021/05/28 01:16:50;;;;;;;5.20;4.55;;;;;;;;;;5037084;28;20241;-82
2021/05/28 01:19:17;;;;;;;5.70;4.82;;;;;;;;;;5037451;28;20182;-82
2021/05/28 01:21:44;;;;;;;5.28;4.60;;;;;;;;;;5037340;28;20183;-82
2021/05/28 01:24:12;;;;;;;5.20;4.15;;;;;;;;;;5038049;28;20201;-82
2021/05/28 01:26:40;;;;;;;4.80;3.92;;;;;;;;;;5036574;28;20222;-83
2021/05/28 01:29:07;;;;;;;4.70;4.30;;;;;;;;;;5037162;28;20213;-82
2021/05/28 01:31:35;;;;;;;5.75;4.50;;;;;;;;;;5036949;28;20305;-82
2021/05/28 01:34:03;;;;;;;4.40;4.07;;;;;;;;;;5036091;28;20194;-82
2021/05/28 01:36:30;;;;;;;11.00;4.50;;;;;;;;;;5054666;28;20229;-82
2021/05/28 01:38:57;;;;;;;7.85;4.38;;;;;;;;;;5056711;28;20186;-82
2021/05/28 01:41:29;;;;;;;7.32;5.82;;;;;;;;;;5056354;28;20213;-82
2021/05/28 01:43:56;;;;;;;7.20;4.60;;;;;;;;;;5055989;28;20198;-82
2021/05/28 01:46:23;;;;;;;7.30;4.82;;;;;;;;;;5056050;28;20694;-83
2021/05/28 01:48:51;;;;;;;6.55;4.82;;;;;;;;;;5058011;28;20186;-82
2021/05/28 01:51:18;;;;;;;6.78;4.85;;;;;;;;;;5057524;28;20694;-83
2021/05/28 01:53:45;;;;;;;5.07;4.47;;;;;;;;;;5056568;28;20206;-82
2021/05/28 01:56:12;;;;;;;5.78;4.22;;;;;;;;;;5056980;28;20229;-82
2021/05/28 01:58:40;;;;;;;5.70;4.55;;;;;;;;;;5037681;28;20221;-83
2021/05/28 02:01:07;;;;;;;5.93;5.07;;;;;;;;;;5036271;28;20285;-83
2021/05/28 02:03:33;;;;;;;6.95;6.00;;;;;;;;;;5036352;28;20209;-83
2021/05/28 02:06:00;;;;;;;5.72;4.70;;;;;;;;;;5036568;28;20218;-83
2021/05/28 02:08:27;;;;;;;5.00;4.50;;;;;;;;;;5036476;28;20221;-83
2021/05/28 02:10:54;;;;;;;4.72;4.30;;;;;;;;;;5035575;28;20222;-83
2021/05/28 02:13:21;;;;;;;5.63;5.13;;;;;;;;;;5036266;28;20209;-83
2021/05/28 02:15:49;;;;;;;13.60;6.28;;;;;;;;;;5036192;28;20234;-83
2021/05/28 02:18:16;;;;;;;5.05;4.60;;;;;;;;;;5036660;28;20194;-83
2021/05/28 02:20:42;;;;;;;5.07;4.68;;;;;;;;;;5037389;28;20198;-83
2021/05/28 02:23:10;;;;;;;5.15;4.65;;;;;;;;;;5036761;28;20214;-83
2021/05/28 02:25:36;;;;;;;5.05;4.57;;;;;;;;;;5036055;28;20222;-83
2021/05/28 02:28:04;;;;;;;5.13;4.35;;;;;;;;;;5037524;28;20207;-82
2021/05/28 02:30:31;;;;;;;7.45;5.07;;;;;;;;;;5036829;28;20207;-83
2021/05/28 02:32:58;;;;;;;8.23;4.70;;;;;;;;;;5037423;28;20194;-83
2021/05/28 02:35:25;;;;;;;7.70;5.07;;;;;;;;;;5036492;28;20214;-83
2021/05/28 02:37:52;;;;;;;5.50;4.97;;;;;;;;;;5036958;28;20246;-83
2021/05/28 02:40:20;;;;;;;5.97;4.30;;;;;;;;;;5037092;28;20210;-83
2021/05/28 02:42:47;;;;;;;5.03;4.53;;;;;;;;;;5036500;28;20279;-83
2021/05/28 02:45:15;;;;;;;9.95;5.65;;;;;;;;;;5036039;28;20226;-83
2021/05/28 02:47:42;;;;;;;5.80;4.90;;;;;;;;;;5035628;28;20714;-83
2021/05/28 02:50:11;;;;;;;5.78;4.90;;;;;;;;;;5035960;28;20202;-83
2021/05/28 02:52:38;;;;;;;6.00;4.85;;;;;;;;;;5035103;28;20226;-84
2021/05/28 02:55:06;;;;;;;6.82;5.15;;;;;;;;;;5036586;28;20226;-83
2021/05/28 02:57:35;;;;;;;6.22;4.72;;;;;;;;;;5036242;28;20213;-84
2021/05/28 03:00:02;;;;;;;5.60;5.10;;;;;;;;;;5035470;28;20202;-83
2021/05/28 03:02:29;;;;;;;5.43;4.93;;;;;;;;;;5036259;28;20199;-83
2021/05/28 03:04:56;;;;;;;6.20;5.00;;;;;;;;;;5036262;28;20241;-83
2021/05/28 03:07:23;;;;;;;5.80;5.25;;;;;;;;;;5036236;28;20213;-83
2021/05/28 03:09:50;;;;;;;5.50;4.97;;;;;;;;;;5037663;28;20202;-83
2021/05/28 03:12:17;;;;;;;13.07;5.90;;;;;;;;;;5039937;28;20222;-84
2021/05/28 03:14:44;;;;;;;7.45;5.28;;;;;;;;;;5040141;28;20206;-83
2021/05/28 03:17:11;;;;;;;6.32;5.78;;;;;;;;;;5040232;28;20206;-83
2021/05/28 03:19:41;;;;;;;7.97;5.43;;;;;;;;;;5040126;28;20205;-84
2021/05/28 03:24:54;;;;;;;7.78;5.15;;;;;;;;;;5039564;28;20201;-83
2021/05/28 03:27:21;;;;;;;8.45;5.32;;;;;;;;;;5040056;28;20205;-83
2021/05/28 03:29:48;;;;;;;11.75;5.95;;;;;;;;;;5039390;28;20665;-84
2021/05/28 03:32:15;;;;;;;6.95;5.75;;;;;;;;;;5039847;28;20238;-84
2021/05/28 03:34:42;;;;;;;7.75;5.43;;;;;;;;;;5039955;28;20731;-84
2021/05/28 03:37:09;;;;;;;5.95;5.18;;;;;;;;;;5039499;28;20209;-83
2021/05/28 03:39:36;;;;;;;6.70;5.43;;;;;;;;;;5040629;28;20206;-84
2021/05/28 03:42:04;;;;;;;5.47;4.43;;;;;;;;;;5039882;28;20206;-83
2021/05/28 03:44:31;;;;;;;6.75;5.35;;;;;;;;;;5040113;28;20256;-84
2021/05/28 03:46:58;;;;;;;7.70;5.15;;;;;;;;;;5039112;28;20214;-84
2021/05/28 03:49:25;;;;;;;5.70;4.90;;;;;;;;;;5038994;28;20202;-84
2021/05/28 03:51:52;;;;;;;6.05;4.85;;;;;;;;;;5038876;28;20222;-83
2021/05/28 03:54:20;;;;;;;5.30;4.80;;;;;;;;;;5038369;28;20210;-84
2021/05/28 03:56:47;;;;;;;7.80;5.13;;;;;;;;;;5038638;28;20222;-83
2021/05/28 03:59:15;;;;;;;6.22;5.50;;;;;;;;;;5039251;28;20202;-83
2021/05/28 04:01:42;;;;;;;8.20;5.65;;;;;;;;;;5039041;28;20679;-83
2021/05/28 04:04:09;;;;;;;6.35;5.75;;;;;;;;;;5038758;28;20213;-83
2021/05/28 04:06:36;;;;;;;7.97;5.68;;;;;;;;;;5038915;28;20592;-83
2021/05/28 04:09:03;;;;;;;6.68;4.70;;;;;;;;;;5038318;28;20202;-84
2021/05/28 04:11:30;;;;;;;7.57;5.40;;;;;;;;;;5038431;28;20317;-83
2021/05/28 04:13:57;;;;;;;5.80;5.20;;;;;;;;;;5038669;28;20206;-83
2021/05/28 04:16:24;;;;;;;5.72;5.22;;;;;;;;;;5038106;28;20246;-83
2021/05/28 04:18:51;;;;;;;7.50;5.70;;;;;;;;;;5038838;28;20210;-84
2021/05/28 04:21:18;;;;;;;9.25;5.13;;;;;;;;;;5038331;28;20680;-84
2021/05/28 04:23:45;;;;;;;5.60;5.13;;;;;;;;;;5038090;28;20202;-84
2021/05/28 04:26:12;;;;;;;5.63;4.88;;;;;;;;;;5038535;28;20223;-84
2021/05/28 04:28:39;;;;;;;5.72;5.18;;;;;;;;;;5039016;28;20264;-84
2021/05/28 04:31:05;;;;;;;6.93;5.40;;;;;;;;;;5037666;28;20199;-84
2021/05/28 04:33:33;;;;;;;5.35;4.90;;;;;;;;;;5039039;28;20210;-84
2021/05/28 04:36:00;;;;;;;5.78;5.00;;;;;;;;;;5037117;28;20619;-84
2021/05/28 04:38:27;;;;;;;8.90;6.88;;;;;;;;;;5037777;28;20282;-83
2021/05/28 04:40:54;;;;;;;6.10;5.50;;;;;;;;;;5037567;28;20208;-83
2021/05/28 04:43:21;;;;;;;8.00;5.20;;;;;;;;;;5038018;28;20210;-83
2021/05/28 04:45:48;;;;;;;8.55;5.60;;;;;;;;;;5037744;28;20226;-83
2021/05/28 04:48:16;;;;;;;6.00;5.40;;;;;;;;;;5037774;28;20221;-83
2021/05/28 04:50:43;;;;;;;9.52;5.85;;;;;;;;;;5037661;28;20211;-84
2021/05/28 04:53:10;;;;;;;6.18;5.50;;;;;;;;;;5037195;28;20226;-84
2021/05/28 04:55:37;;;;;;;5.95;4.63;;;;;;;;;;5037224;28;20222;-82
2021/05/28 04:58:04;;;;;;;5.05;4.63;;;;;;;;;;5036893;28;20653;-82
2021/05/28 05:00:32;;;;;;;6.55;5.05;;;;;;;;;;5037289;28;20268;-83
2021/05/28 05:02:59;;;;;;;5.18;4.65;;;;;;;;;;5037588;28;20597;-83
2021/05/28 05:05:27;;;;;;;5.53;5.03;;;;;;;;;;5036411;28;20233;-84
2021/05/28 05:07:55;;;;;;;6.80;5.00;;;;;;;;;;5037493;28;20206;-85
2021/05/28 05:10:21;;;;;;;8.45;4.90;;;;;;;;;;5037109;28;20206;-83
2021/05/28 05:12:48;;;;;;;7.95;5.00;;;;;;;;;;5036697;28;20595;-84
2021/05/28 05:15:16;;;;;;;7.93;5.72;;;;;;;;;;5037446;28;20241;-84
2021/05/28 05:17:42;;;;;;;5.75;5.25;;;;;;;;;;5038721;28;20409;-83
2021/05/28 05:20:11;;;;;;;8.02;5.45;;;;;;;;;;5038964;28;20206;-84
2021/05/28 05:22:38;;;;;;;11.55;5.75;;;;;;;;;;5037194;28;20244;-84
2021/05/28 05:25:08;;;;;;;5.97;5.43;;;;;;;;;;5036857;28;20229;-83
2021/05/28 05:27:34;;;;;;;7.10;4.63;;;;;;;;;;5037407;28;20209;-83
2021/05/28 05:30:02;;;;;;;4.88;4.40;;;;;;;;;;5036940;28;20198;-84
2021/05/28 05:32:29;;;;;;;5.90;5.22;;;;;;;;;;5036508;28;20642;-83
2021/05/28 05:34:56;;;;;;;5.20;4.72;;;;;;;;;;5037140;28;20209;-84
2021/05/28 05:37:24;;;;;;;7.70;5.80;;;;;;;;;;5036947;28;20271;-84
2021/05/28 05:39:51;;;;;;;6.63;5.85;;;;;;;;;;5037713;28;20202;-84
2021/05/28 05:42:18;;;;;;;5.25;4.75;;;;;;;;;;5037897;28;20213;-85
2021/05/28 05:44:45;;;;;;;6.40;5.45;;;;;;;;;;5040128;28;20194;-84
2021/05/28 05:47:12;;;;;;;5.40;4.43;;;;;;;;;;5039302;28;20582;-85
2021/05/28 05:49:39;;;;;;;5.25;4.75;;;;;;;;;;5039187;28;20198;-84
2021/05/28 05:52:06;;;;;;;5.57;4.65;;;;;;;;;;5039991;28;20233;-83
2021/05/28 05:54:33;;;;;;;7.60;5.03;;;;;;;;;;5041292;28;20199;-83
2021/05/28 05:57:00;;;;;;;7.82;5.25;;;;;;;;;;5039869;28;20252;-82
2021/05/28 05:59:29;;;;;;;5.80;4.20;;;;;;;;;;5039432;28;20210;-84
2021/05/28 06:01:56;;;;;;;4.65;3.90;;;;;;;;;;5038233;28;20230;-83
2021/05/28 06:04:23;;;;;;;5.00;4.22;;;;;;;;;;5035847;28;20220;-84
2021/05/28 06:06:49;;;;;;;5.38;4.03;;;;;;;;;;5038517;28;20238;-83
2021/05/28 06:09:16;;;;;;;5.68;4.75;;;;;;;;;;5038575;28;20208;-82
2021/05/28 06:11:43;;;;;;;7.53;4.53;;;;;;;;;;5038300;28;20202;-83
2021/05/28 06:14:10;;;;;;;6.10;4.82;;;;;;;;;;5037535;28;20289;-82
2021/05/28 06:16:38;;;;;;;4.68;4.28;;;;;;;;;;5039312;28;20701;-83
2021/05/28 06:19:05;;;;;;;8.50;4.18;;;;;;;;;;5040421;28;20709;-83
2021/05/28 06:21:32;;;;;;;4.43;4.03;;;;;;;;;;5041139;28;20207;-84
2021/05/28 06:23:59;;;;;;;5.20;4.70;;;;;;;;;;5041144;28;20217;-83
2021/05/28 06:26:26;;;;;;;5.47;4.20;;;;;;;;;;5039813;28;20727;-83
2021/05/28 06:28:52;;;;;;;6.70;3.60;;;;;;;;;;5038276;28;20213;-84
2021/05/28 06:31:19;;;;;;;4.82;3.78;;;;;;;;;;5037013;28;20260;-84
2021/05/28 06:33:47;;;;;;;11.15;5.75;;;;;;;;;;5037519;28;20226;-84
2021/05/28 06:36:14;;;;;;;4.75;3.58;;;;;;;;;;5037240;28;20222;-84
2021/05/28 06:38:41;;;;;;;5.15;4.65;;;;;;;;;;5037677;28;20198;-84
2021/05/28 06:41:08;;;;;;;4.85;3.83;;;;;;;;;;5039351;28;20260;-84
2021/05/28 06:43:35;;;;;;;4.28;3.40;;;;;;;;;;5040796;28;20198;-83
2021/05/28 06:46:02;;;;;;;3.38;3.05;;;;;;;;;;5043672;28;20241;-84
2021/05/28 06:48:29;;;;;;;5.03;2.85;;;;;;;;;;5044213;28;20210;-84
2021/05/28 06:50:56;;;;;;;3.00;2.80;;;;;;;;;;5046868;28;20206;-84
2021/05/28 06:53:23;;;;;;;3.22;2.95;;;;;;;;;;5046363;28;20237;-84
2021/05/28 06:55:50;;;;;;;3.83;3.13;;;;;;;;;;5046244;28;20280;-84
2021/05/28 06:58:20;;;;;;;3.60;2.67;;;;;;;;;;5046703;28;20206;-83
2021/05/28 07:00:47;;;;;;;4.00;3.03;;;;;;;;;;5045969;28;20209;-84
2021/05/28 07:03:13;;;;;;;5.47;3.03;;;;;;;;;;5044287;28;20194;-84
2021/05/28 07:05:41;;;;;;;3.00;2.50;;;;;;;;;;5044672;28;20229;-84
2021/05/28 07:08:08;;;;;;;3.92;2.70;;;;;;;;;;5044935;28;20198;-84
2021/05/28 07:10:35;;;;;;;2.78;2.58;;;;;;;;;;5041215;28;20293;-85
2021/05/28 07:13:02;;;;;;;4.13;3.00;;;;;;;;;;5040579;28;20225;-83
2021/05/28 07:15:29;;;;;;;7.43;3.17;;;;;;;;;;5042243;28;20256;-85
2021/05/28 07:17:56;;;;;;;2.90;2.33;;;;;;;;;;5042036;28;20673;-84
2021/05/28 07:20:23;;;;;;;6.32;2.97;;;;;;;;;;5043168;28;20197;-84
2021/05/28 07:22:50;;;;;;;3.08;2.55;;;;;;;;;;5044471;28;20198;-85
2021/05/28 07:25:18;;;;;;;3.42;2.50;;;;;;;;;;5042932;28;20356;-85
2021/05/28 07:27:45;;;;;;;2.85;2.47;;;;;;;;;;5041426;28;20202;-86
2021/05/28 07:30:14;;;;;;;4.70;3.35;;;;;;;;;;5041262;28;20213;-86
2021/05/28 07:32:42;;;;;;;3.20;2.70;;;;;;;;;;5039737;28;20684;-85
2021/05/28 07:35:10;;;;;;;3.50;2.83;;;;;;;;;;5041154;28;20688;-85
2021/05/28 07:37:37;;;;;;;5.15;2.95;;;;;;;;;;5040540;28;20194;-85
2021/05/28 07:40:05;;;;;;;2.40;2.20;;;;;;;;;;5040092;28;20199;-86
2021/05/28 07:42:35;;;;;;;4.97;2.45;;;;;;;;;;5039909;28;20904;-85
2021/05/28 07:45:02;;;;;;;3.25;2.60;;;;;;;;;;5040556;28;20222;-85
2021/05/28 07:47:29;;;;;;;2.88;2.38;;;;;;;;;;5040971;28;20225;-85
2021/05/28 07:49:56;;;;;;;5.38;3.50;;;;;;;;;;5040821;28;20645;-86
2021/05/28 07:52:23;;;;;;;4.68;3.22;;;;;;;;;;5039939;28;20206;-85
2021/05/28 07:54:51;;;;;;;3.55;3.20;;;;;;;;;;5039552;28;20195;-85
2021/05/28 07:57:18;;;;;;;3.67;2.95;;;;;;;;;;5040697;28;20207;-85
2021/05/28 07:59:46;;;;;;;3.70;2.80;;;;;;;;;;5040085;28;20563;-85
2021/05/28 08:02:12;;;;;;;3.45;3.15;;;;;;;;;;5040500;28;20211;-84
2021/05/28 08:04:39;;;;;;;6.20;3.03;;;;;;;;;;5040492;28;20209;-86
2021/05/28 08:07:06;;;;;;;3.15;2.63;;;;;;;;;;5039685;28;20189;-85
2021/05/28 08:09:33;;;;;;;3.95;3.00;;;;;;;;;;5040207;28;20188;-84
2021/05/28 08:12:00;;;;;;;4.05;3.03;;;;;;;;;;5040632;28;20693;-85
2021/05/28 08:14:28;;;;;;;3.42;3.13;;;;;;;;;;5039966;28;20218;-84
2021/05/28 08:16:55;;;;;;;3.72;3.00;;;;;;;;;;5039681;28;20249;-85
2021/05/28 08:19:22;;;;;;;3.45;2.85;;;;;;;;;;5040118;28;20680;-86
2021/05/28 08:21:49;;;;;;;4.70;2.55;;;;;;;;;;5040311;28;20207;-85
2021/05/28 08:24:16;;;;;;;4.32;2.97;;;;;;;;;;5040028;28;20260;-85
2021/05/28 08:26:44;;;;;;;5.90;2.55;;;;;;;;;;5039927;28;20241;-84
2021/05/28 08:29:11;;;;;;;2.78;2.58;;;;;;;;;;5040384;28;20552;-85
2021/05/28 08:31:38;;;;;;;4.93;2.42;;;;;;;;;;5039713;28;20236;-85
2021/05/28 08:34:06;;;;;;;3.42;2.63;;;;;;;;;;5039212;28;20222;-85
2021/05/28 08:36:32;;;;;;;3.42;2.92;;;;;;;;;;5039917;28;20214;-84
2021/05/28 08:38:59;;;;;;;2.40;2.20;;;;;;;;;;5039191;28;20186;-86
2021/05/28 08:41:27;;;;;;;2.50;2.30;;;;;;;;;;5039927;28;20643;-86
2021/05/28 08:43:54;;;;;;;3.40;2.63;;;;;;;;;;5039887;28;20183;-85
2021/05/28 08:46:21;;;;;;;4.15;2.55;;;;;;;;;;5039641;28;20249;-86
2021/05/28 08:48:50;;;;;;;6.00;2.55;;;;;;;;;;5039480;28;20206;-86
2021/05/28 08:51:18;;;;;;;3.80;2.63;;;;;;;;;;5039807;28;20190;-85
2021/05/28 08:53:45;;;;;;;10.23;3.95;;;;;;;;;;5039848;28;20203;-85
2021/05/28 08:56:12;;;;;;;2.83;2.22;;;;;;;;;;5039806;28;20249;-86
2021/05/28 08:58:39;;;;;;;2.33;2.13;;;;;;;;;;5039654;28;20552;-85
2021/05/28 09:01:08;;;;;;;2.88;2.60;;;;;;;;;;5040011;28;20206;-85
2021/05/28 09:03:36;;;;;;;2.03;1.80;;;;;;;;;;5040125;28;20202;-86
2021/05/28 09:06:15;;;;;;;2.92;2.72;;;;;;;;;;5039608;28;20233;-85
2021/05/28 09:08:44;;;;;;;2.78;2.58;;;;;;;;;;5038217;28;20237;-85
2021/05/28 09:11:14;;;;;;;4.88;3.58;;;;;;;;;;5039532;28;20194;-84
2021/05/28 09:13:46;;;;;;;4.57;3.03;;;;;;;;;;5039586;28;20234;-86
2021/05/28 09:16:15;;;;;;;5.38;2.55;;;;;;;;;;5039534;28;20249;-87
2021/05/28 09:18:46;;;;;;;4.05;2.63;;;;;;;;;;5039394;28;20210;-85
2021/05/28 09:21:15;;;;;;;2.47;2.08;;;;;;;;;;5039308;28;20202;-86
2021/05/28 09:23:43;;;;;;;2.53;2.22;;;;;;;;;;5039194;28;20578;-85
2021/05/28 09:26:11;;;;;;;3.10;2.28;;;;;;;;;;5038307;28;20226;-85
2021/05/28 09:28:41;;;;;;;2.72;2.20;;;;;;;;;;5038756;28;20207;-84
2021/05/28 09:31:13;;;;;;;1.92;1.73;;;;;;;;;;5039093;28;20209;-84
2021/05/28 09:33:43;;;;;;;3.10;2.17;;;;;;;;;;5038819;28;20272;-85
2021/05/28 09:36:19;;;;;;;4.47;2.72;;;;;;;;;;5038796;28;20233;-85
2021/05/28 09:39:04;;;;;;;2.50;2.22;;;;;;;;;;5038976;28;20233;-85
2021/05/28 09:41:45;;;;;;;2.65;2.30;;;;;;;;;;5038787;28;20709;-85
2021/05/28 09:44:16;;;;;;;2.60;2.13;;;;;;;;;;5038494;28;20230;-86
2021/05/28 09:47:10;;;;;;;2.17;1.90;;;;;;;;;;5038879;28;20229;-85
2021/05/28 09:49:40;;;;;;;2.22;1.77;;;;;;;;;;5038148;28;20199;-85
2021/05/28 09:52:13;;;;;;;1.95;1.85;;;;;;;;;;5038215;28;20689;-85
2021/05/28 09:54:55;;;;;;;14.07;2.88;;;;;;;;;;5038103;28;20209;-85
2021/05/28 09:57:31;;;;;;;3.58;2.30;;;;;;;;;;5038377;28;20568;-84
2021/05/28 09:59:57;;;;;;;2.80;2.58;;;;;;;;;;5038423;28;20660;-85
2021/05/28 10:02:29;;;;;;;2.50;2.30;;;;;;;;;;5038180;28;20186;-84
2021/05/28 10:04:58;;;;;;;2.53;2.30;;;;;;;;;;5037890;28;20849;-86
2021/05/28 10:07:26;;;;;;;3.08;2.67;;;;;;;;;;5038243;28;20222;-84
2021/05/28 10:09:55;;;;;;;2.00;1.90;;;;;;;;;;5037879;28;20190;-84
2021/05/28 10:12:23;;;;;;;2.13;1.92;;;;;;;;;;5037477;28;20249;-85
2021/05/28 10:14:51;;;;;;;1.85;1.75;;;;;;;;;;5037516;28;20207;-85
2021/05/28 10:17:19;;;;;;;2.72;1.63;;;;;;;;;;5038132;28;20186;-84
2021/05/28 10:19:46;;;;;;;2.75;2.00;;;;;;;;;;5037466;28;20673;-85
2021/05/28 10:22:15;;;;;;;2.00;1.73;;;;;;;;;;5037651;28;20187;-85
2021/05/28 10:24:42;;;;;;;2.67;1.85;;;;;;;;;;5037606;28;20257;-84
2021/05/28 10:27:10;;;;;;;2.85;1.83;;;;;;;;;;5037897;28;20281;-84
2021/05/28 10:29:39;;;;;;;3.45;2.20;;;;;;;;;;5037135;28;20198;-84
2021/05/28 10:32:12;;;;;;;2.25;1.50;;;;;;;;;;5038247;28;20262;-85
2021/05/28 10:35:12;;;;;;;1.90;1.80;;;;;;;;;;5038332;28;20673;-84
2021/05/28 10:37:41;;;;;;;6.30;2.65;;;;;;;;;;5038645;28;20186;-85
2021/05/28 10:40:29;;;;;;;2.15;1.50;;;;;;;;;;5037710;28;20206;-84
2021/05/28 10:43:04;;;;;;;2.97;2.15;;;;;;;;;;5037988;28;20187;-85
2021/05/28 10:45:58;;;;;;;1.70;1.60;;;;;;;;;;5037319;28;20221;-85
2021/05/28 10:49:09;;;;;;;2.92;2.63;;;;;;;;;;5037753;28;20560;-85
2021/05/28 10:52:05;;;;;;;1.52;1.42;;;;;;;;;;5038571;28;20209;-85
2021/05/28 10:54:35;;;;;;;2.13;2.03;;;;;;;;;;5024108;28;20712;-85
2021/05/28 10:57:27;;;;;;;2.55;1.67;;;;;;;;;;5037729;28;20230;-85
2021/05/28 11:00:04;;;;;;;2.17;1.45;;;;;;;;;;5037799;28;20197;-85
2021/05/28 11:03:10;;;;;;;1.63;1.50;;;;;;;;;;5037432;28;20236;-86
2021/05/28 11:05:51;;;;;;;2.08;1.88;;;;;;;;;;5037300;28;20312;-86
2021/05/28 11:08:43;;;;;;;3.85;2.00;;;;;;;;;;5037579;28;20190;-85
2021/05/28 11:11:58;;;;;;;2.83;2.63;;;;;;;;;;5037461;28;20202;-84
2021/05/28 11:14:27;;;;;;;2.90;2.10;;;;;;;;;;4976394;28;20295;-85
2021/05/28 11:17:16;;;;;;;1.88;1.70;;;;;;;;;;5025497;28;20238;-85
2021/05/28 11:19:56;;;;;;;3.00;1.65;;;;;;;;;;5038203;28;20190;-86
2021/05/28 11:22:37;;;;;;;2.30;1.60;;;;;;;;;;5038042;28;20190;-85
2021/05/28 11:25:08;;;;;;;4.45;1.80;;;;;;;;;;5037702;28;20229;-85
2021/05/28 11:27:48;;;;;;;1.67;1.52;;;;;;;;;;5037904;28;20194;-85
2021/05/28 11:30:30;;;;;;;1.90;1.80;;;;;;;;;;5038659;28;20186;-86
2021/05/28 11:32:58;;;;;;;5.18;1.80;;;;;;;;;;5041314;28;20225;-84
2021/05/28 11:35:29;;;;;;;1.80;1.70;;;;;;;;;;5040944;28;20308;-85
2021/05/28 11:37:59;;;;;;;2.05;1.85;;;;;;;;;;5040959;28;20202;-84
2021/05/28 11:40:28;;;;;;;2.10;1.60;;;;;;;;;;5040890;28;20633;-85
2021/05/28 11:43:05;;;;;;;1.90;1.80;;;;;;;;;;5040562;28;20185;-85
2021/05/28 11:45:32;;;;;;;2.38;1.85;;;;;;;;;;5040925;28;20268;-85
2021/05/28 11:48:00;;;;;;;1.73;1.63;;;;;;;;;;5040076;28;20179;-85
2021/05/28 11:50:39;;;;;;;1.80;1.70;;;;;;;;;;5040367;28;20210;-85
2021/05/28 11:53:07;;;;;;;4.15;1.80;;;;;;;;;;5040743;28;20226;-85
2021/05/28 11:55:45;;;;;;;1.70;1.60;;;;;;;;;;5040136;28;20226;-85
2021/05/28 11:58:13;;;;;;;2.22;1.70;;;;;;;;;;5040437;28;20390;-84
2021/05/28 12:00:41;;;;;;;2.30;2.10;;;;;;;;;;5040412;28;20194;-84
2021/05/28 12:03:09;;;;;;;1.80;1.70;;;;;;;;;;5040131;28;20186;-85
2021/05/28 12:05:38;;;;;;;2.40;2.30;;;;;;;;;;5039967;28;20704;-85
2021/05/28 12:08:21;;;;;;;1.35;1.25;;;;;;;;;;5040035;28;20229;-84
2021/05/28 12:10:50;;;;;;;1.77;1.65;;;;;;;;;;5039790;28;20194;-85
2021/05/28 12:13:18;;;;;;;1.90;1.80;;;;;;;;;;5039769;28;20210;-84
2021/05/28 12:15:47;;;;;;;2.17;1.98;;;;;;;;;;5039601;28;20727;-84
2021/05/28 12:18:19;;;;;;;1.85;1.75;;;;;;;;;;5039936;28;20252;-85
2021/05/28 12:20:47;;;;;;;2.22;2.03;;;;;;;;;;5040416;28;20545;-85
2021/05/28 12:23:17;;;;;;;7.82;3.47;;;;;;;;;;5039872;28;20191;-84
2021/05/28 12:25:49;;;;;;;2.42;2.10;;;;;;;;;;5040027;28;20230;-84
2021/05/28 12:28:28;;;;;;;1.73;1.58;;;;;;;;;;5039717;28;20236;-85
2021/05/28 12:31:03;;;;;;;1.77;1.23;;;;;;;;;;5039940;28;20679;-85
2021/05/28 12:33:33;;;;;;;1.65;1.55;;;;;;;;;;5039816;28;20220;-85
2021/05/28 12:36:03;;;;;;;2.15;1.70;;;;;;;;;;5039076;28;20280;-85
2021/05/28 12:38:37;;;;;;;2.60;1.85;;;;;;;;;;5039713;28;20248;-85
2021/05/28 12:41:05;;;;;;;1.70;1.38;;;;;;;;;;5039510;28;20277;-84
2021/05/28 12:43:33;;;;;;;3.30;2.08;;;;;;;;;;5039185;28;20587;-85
2021/05/28 12:46:01;;;;;;;3.42;1.55;;;;;;;;;;5040490;28;20225;-85
2021/05/28 12:48:47;;;;;;;2.08;1.48;;;;;;;;;;5039503;28;20265;-84
2021/05/28 12:51:17;;;;;;;1.58;1.48;;;;;;;;;;5039258;28;20198;-85
2021/05/28 12:53:44;;;;;;;2.45;1.42;;;;;;;;;;5039412;28;20615;-86
2021/05/28 12:56:20;;;;;;;1.85;1.70;;;;;;;;;;5039255;28;20230;-84
2021/05/28 12:58:49;;;;;;;1.50;1.40;;;;;;;;;;5039024;28;20200;-85
2021/05/28 13:01:18;;;;;;;1.60;1.50;;;;;;;;;;5039725;28;20214;-85
2021/05/28 13:03:51;;;;;;;1.38;1.27;;;;;;;;;;5039209;28;20194;-85
2021/05/28 13:06:42;;;;;;;1.90;1.80;;;;;;;;;;5039585;28;20214;-84
2021/05/28 13:09:19;;;;;;;2.00;1.65;;;;;;;;;;5038523;28;20209;-84
2021/05/28 13:11:52;;;;;;;1.95;1.75;;;;;;;;;;5036942;28;20195;-85
2021/05/28 13:14:21;;;;;;;1.83;1.73;;;;;;;;;;5038857;28;20293;-85
2021/05/28 13:16:49;;;;;;;2.25;1.30;;;;;;;;;;5038517;28;20241;-85
2021/05/28 13:19:16;;;;;;;1.88;1.35;;;;;;;;;;5038595;28;20680;-84
2021/05/28 13:21:56;;;;;;;1.40;1.30;;;;;;;;;;5037880;28;20202;-84
2021/05/28 13:24:41;;;;;;;2.22;2.03;;;;;;;;;;5038608;28;20202;-83
2021/05/28 13:27:14;;;;;;;1.88;1.77;;;;;;;;;;5036686;28;20202;-84
2021/05/28 13:29:57;;;;;;;1.48;1.30;;;;;;;;;;5036537;28;20201;-84
2021/05/28 13:32:28;;;;;;;2.50;1.38;;;;;;;;;;5036520;28;20209;-84
2021/05/28 13:34:56;;;;;;;1.30;1.20;;;;;;;;;;5036891;28;20321;-83
2021/05/28 13:37:24;;;;;;;2.25;1.30;;;;;;;;;;5036477;28;20206;-83
2021/05/28 13:39:52;;;;;;;1.50;1.40;;;;;;;;;;5035861;28;20214;-83
2021/05/28 13:42:25;;;;;;;1.92;1.42;;;;;;;;;;5036377;28;20202;-84
2021/05/28 13:44:52;;;;;;;2.25;1.70;;;;;;;;;;5035432;28;20206;-83
2021/05/28 13:47:19;;;;;;;1.73;1.63;;;;;;;;;;5035753;28;20672;-84
2021/05/28 13:49:46;;;;;;;2.35;2.15;;;;;;;;;;5036008;28;20688;-84
2021/05/28 13:52:14;;;;;;;2.00;1.80;;;;;;;;;;5036150;28;20202;-84
2021/05/28 13:54:41;;;;;;;1.67;1.58;;;;;;;;;;5035784;28;20209;-84
2021/05/28 13:57:09;;;;;;;3.50;2.47;;;;;;;;;;5036681;28;20213;-84
2021/05/28 13:59:36;;;;;;;2.35;1.80;;;;;;;;;;5036674;28;20229;-83
2021/05/28 14:02:04;;;;;;;2.33;1.98;;;;;;;;;;5036111;28;20202;-82
2021/05/28 14:04:32;;;;;;;2.42;2.00;;;;;;;;;;5036198;28;20202;-83
2021/05/28 14:07:00;;;;;;;2.65;2.17;;;;;;;;;;5035832;28;20222;-83
2021/05/28 14:09:28;;;;;;;2.40;1.88;;;;;;;;;;5036225;28;20209;-83
2021/05/28 14:11:55;;;;;;;1.98;1.88;;;;;;;;;;5035790;28;20680;-83
2021/05/28 14:14:22;;;;;;;1.85;1.70;;;;;;;;;;5036653;28;20531;-83
2021/05/28 14:16:49;;;;;;;1.90;1.80;;;;;;;;;;5035491;28;20230;-82
2021/05/28 14:19:15;;;;;;;2.45;1.60;;;;;;;;;;5035548;28;20203;-83
2021/05/28 14:21:42;;;;;;;1.63;1.52;;;;;;;;;;5035952;28;20217;-82
2021/05/28 14:24:10;;;;;;;2.10;1.95;;;;;;;;;;5035417;28;20206;-82
2021/05/28 14:26:38;;;;;;;2.47;2.25;;;;;;;;;;5035801;28;20222;-83
2021/05/28 14:29:05;;;;;;;3.35;2.58;;;;;;;;;;5035350;28;20206;-83
2021/05/28 14:31:32;;;;;;;3.50;2.55;;;;;;;;;;5035511;28;20203;-83
2021/05/28 14:33:59;;;;;;;4.55;2.60;;;;;;;;;;5036129;28;20208;-83
2021/05/28 14:36:28;;;;;;;3.20;2.63;;;;;;;;;;5035248;28;20299;-82
2021/05/28 14:38:57;;;;;;;2.53;2.33;;;;;;;;;;5036858;28;20566;-82
2021/05/28 14:41:24;;;;;;;2.75;2.55;;;;;;;;;;5035836;28;20629;-84
2021/05/28 14:43:54;;;;;;;3.42;2.75;;;;;;;;;;5035848;28;20261;-83
2021/05/28 14:46:22;;;;;;;3.30;2.67;;;;;;;;;;5034881;28;20229;-83
2021/05/28 14:48:49;;;;;;;4.18;2.90;;;;;;;;;;5035334;28;20214;-83
2021/05/28 14:51:17;;;;;;;4.00;3.63;;;;;;;;;;5034926;28;20257;-83
2021/05/28 14:53:44;;;;;;;3.85;2.53;;;;;;;;;;5034727;28;20610;-83
2021/05/28 14:56:11;;;;;;;3.15;2.72;;;;;;;;;;5035016;28;20226;-83
2021/05/28 14:58:38;;;;;;;2.72;2.53;;;;;;;;;;5035040;28;20206;-83